sensor_id;sensor_type;location;lat;lon;timestamp;P1;durP1;ratioP1;P2;durP2;ratioP2
49890;SDS011;35780;55.568;37.492;2022-09-09T00:04:46;9.32;;;3.70;;
49890;SDS011;35780;55.568;37.492;2022-09-09T00:13:04;8.30;;;3.55;;
49890;SDS011;35780;55.568;37.492;2022-09-09T00:15:53;10.52;;;3.40;;
49890;SDS011;35780;55.568;37.492;2022-09-09T00:18:27;5.80;;;3.70;;
49890;SDS011;35780;55.568;37.492;2022-09-09T00:21:03;15.90;;;4.28;;
49890;SDS011;35780;55.568;37.492;2022-09-09T00:23:38;8.30;;;4.28;;
49890;SDS011;35780;55.568;37.492;2022-09-09T00:26:07;8.15;;;3.25;;
49890;SDS011;35780;55.568;37.492;2022-09-09T00:28:59;6.20;;;3.38;;
49890;SDS011;35780;55.568;37.492;2022-09-09T00:31:29;7.03;;;3.55;;
49890;SDS011;35780;55.568;37.492;2022-09-09T00:36:38;5.80;;;3.40;;
49890;SDS011;35780;55.568;37.492;2022-09-09T00:39:04;10.77;;;4.40;;
49890;SDS011;35780;55.568;37.492;2022-09-09T00:41:57;6.53;;;3.55;;
49890;SDS011;35780;55.568;37.492;2022-09-09T00:44:51;7.32;;;3.45;;
49890;SDS011;35780;55.568;37.492;2022-09-09T00:49:52;8.65;;;3.25;;
49890;SDS011;35780;55.568;37.492;2022-09-09T00:57:38;8.50;;;3.55;;
49890;SDS011;35780;55.568;37.492;2022-09-09T01:00:20;10.27;;;3.63;;
49890;SDS011;35780;55.568;37.492;2022-09-09T01:02:56;9.50;;;3.90;;
49890;SDS011;35780;55.568;37.492;2022-09-09T01:05:51;7.80;;;4.72;;
49890;SDS011;35780;55.568;37.492;2022-09-09T01:08:34;12.50;;;4.30;;
49890;SDS011;35780;55.568;37.492;2022-09-09T01:11:14;7.95;;;3.83;;
49890;SDS011;35780;55.568;37.492;2022-09-09T01:13:45;9.05;;;3.83;;
49890;SDS011;35780;55.568;37.492;2022-09-09T01:16:12;10.13;;;4.10;;
49890;SDS011;35780;55.568;37.492;2022-09-09T01:18:46;6.18;;;3.72;;
49890;SDS011;35780;55.568;37.492;2022-09-09T01:24:23;5.57;;;3.70;;
49890;SDS011;35780;55.568;37.492;2022-09-09T01:26:56;13.25;;;4.55;;
49890;SDS011;35780;55.568;37.492;2022-09-09T01:29:26;18.00;;;4.80;;
49890;SDS011;35780;55.568;37.492;2022-09-09T01:31:52;6.30;;;3.63;;
49890;SDS011;35780;55.568;37.492;2022-09-09T01:34:23;5.65;;;3.55;;
49890;SDS011;35780;55.568;37.492;2022-09-09T01:37:09;5.38;;;3.33;;
49890;SDS011;35780;55.568;37.492;2022-09-09T01:39:36;10.88;;;3.33;;
49890;SDS011;35780;55.568;37.492;2022-09-09T01:42:03;7.28;;;3.58;;
49890;SDS011;35780;55.568;37.492;2022-09-09T01:44:30;7.55;;;3.08;;
49890;SDS011;35780;55.568;37.492;2022-09-09T01:46:56;6.70;;;3.80;;
49890;SDS011;35780;55.568;37.492;2022-09-09T01:49:22;9.15;;;4.00;;
49890;SDS011;35780;55.568;37.492;2022-09-09T01:51:49;8.38;;;3.58;;
49890;SDS011;35780;55.568;37.492;2022-09-09T01:54:17;6.35;;;2.88;;
49890;SDS011;35780;55.568;37.492;2022-09-09T01:57:00;5.10;;;3.30;;
49890;SDS011;35780;55.568;37.492;2022-09-09T02:02:36;14.60;;;3.90;;
49890;SDS011;35780;55.568;37.492;2022-09-09T02:05:11;6.38;;;3.00;;
49890;SDS011;35780;55.568;37.492;2022-09-09T02:07:41;11.25;;;3.67;;
49890;SDS011;35780;55.568;37.492;2022-09-09T02:10:13;5.70;;;3.45;;
49890;SDS011;35780;55.568;37.492;2022-09-09T02:13:05;7.50;;;3.47;;
49890;SDS011;35780;55.568;37.492;2022-09-09T02:18:38;8.82;;;3.92;;
49890;SDS011;35780;55.568;37.492;2022-09-09T02:21:07;9.10;;;3.17;;
49890;SDS011;35780;55.568;37.492;2022-09-09T02:23:33;5.93;;;3.13;;
49890;SDS011;35780;55.568;37.492;2022-09-09T02:26:00;9.80;;;3.22;;
49890;SDS011;35780;55.568;37.492;2022-09-09T02:28:26;11.75;;;3.35;;
49890;SDS011;35780;55.568;37.492;2022-09-09T02:30:54;10.77;;;3.58;;
49890;SDS011;35780;55.568;37.492;2022-09-09T02:33:24;7.05;;;3.10;;
49890;SDS011;35780;55.568;37.492;2022-09-09T02:35:52;5.45;;;3.40;;
49890;SDS011;35780;55.568;37.492;2022-09-09T02:38:21;6.18;;;3.33;;
49890;SDS011;35780;55.568;37.492;2022-09-09T02:40:50;8.38;;;3.30;;
49890;SDS011;35780;55.568;37.492;2022-09-09T02:43:17;7.63;;;3.40;;
49890;SDS011;35780;55.568;37.492;2022-09-09T02:48:51;10.48;;;5.10;;
49890;SDS011;35780;55.568;37.492;2022-09-09T02:56:51;12.93;;;5.00;;
49890;SDS011;35780;55.568;37.492;2022-09-09T02:59:19;9.68;;;4.80;;
49890;SDS011;35780;55.568;37.492;2022-09-09T03:01:46;9.25;;;4.40;;
49890;SDS011;35780;55.568;37.492;2022-09-09T03:04:12;11.60;;;4.95;;
49890;SDS011;35780;55.568;37.492;2022-09-09T03:06:38;8.13;;;4.35;;
49890;SDS011;35780;55.568;37.492;2022-09-09T03:09:03;11.38;;;4.90;;
49890;SDS011;35780;55.568;37.492;2022-09-09T03:11:29;6.72;;;4.53;;
49890;SDS011;35780;55.568;37.492;2022-09-09T03:13:54;9.10;;;4.68;;
49890;SDS011;35780;55.568;37.492;2022-09-09T03:16:21;8.35;;;5.00;;
49890;SDS011;35780;55.568;37.492;2022-09-09T03:18:47;11.57;;;5.07;;
49890;SDS011;35780;55.568;37.492;2022-09-09T03:21:13;13.25;;;5.38;;
49890;SDS011;35780;55.568;37.492;2022-09-09T03:23:39;9.93;;;5.57;;
49890;SDS011;35780;55.568;37.492;2022-09-09T03:26:05;14.00;;;5.95;;
49890;SDS011;35780;55.568;37.492;2022-09-09T03:28:30;11.40;;;5.53;;
49890;SDS011;35780;55.568;37.492;2022-09-09T03:31:00;11.23;;;5.70;;
49890;SDS011;35780;55.568;37.492;2022-09-09T03:33:29;13.23;;;5.00;;
49890;SDS011;35780;55.568;37.492;2022-09-09T03:35:55;10.20;;;4.75;;
49890;SDS011;35780;55.568;37.492;2022-09-09T03:38:24;8.65;;;4.13;;
49890;SDS011;35780;55.568;37.492;2022-09-09T03:40:53;9.10;;;4.10;;
49890;SDS011;35780;55.568;37.492;2022-09-09T03:43:24;12.70;;;4.53;;
49890;SDS011;35780;55.568;37.492;2022-09-09T03:45:50;9.73;;;3.53;;
49890;SDS011;35780;55.568;37.492;2022-09-09T03:48:16;10.73;;;3.58;;
49890;SDS011;35780;55.568;37.492;2022-09-09T03:50:49;9.85;;;3.50;;
49890;SDS011;35780;55.568;37.492;2022-09-09T03:53:16;8.95;;;3.40;;
49890;SDS011;35780;55.568;37.492;2022-09-09T03:55:48;8.45;;;3.40;;
49890;SDS011;35780;55.568;37.492;2022-09-09T03:58:17;9.48;;;3.63;;
49890;SDS011;35780;55.568;37.492;2022-09-09T04:00:44;8.77;;;3.53;;
49890;SDS011;35780;55.568;37.492;2022-09-09T04:03:28;11.82;;;3.42;;
49890;SDS011;35780;55.568;37.492;2022-09-09T04:05:54;11.02;;;3.63;;
49890;SDS011;35780;55.568;37.492;2022-09-09T04:08:21;9.00;;;3.88;;
49890;SDS011;35780;55.568;37.492;2022-09-09T04:10:50;7.53;;;3.40;;
49890;SDS011;35780;55.568;37.492;2022-09-09T04:13:17;17.38;;;4.55;;
49890;SDS011;35780;55.568;37.492;2022-09-09T04:15:50;9.95;;;3.30;;
49890;SDS011;35780;55.568;37.492;2022-09-09T04:20:42;5.55;;;3.45;;
49890;SDS011;35780;55.568;37.492;2022-09-09T04:23:08;9.80;;;3.45;;
49890;SDS011;35780;55.568;37.492;2022-09-09T04:25:34;6.03;;;3.00;;
49890;SDS011;35780;55.568;37.492;2022-09-09T04:27:59;6.30;;;2.60;;
49890;SDS011;35780;55.568;37.492;2022-09-09T04:30:25;9.45;;;3.10;;
49890;SDS011;35780;55.568;37.492;2022-09-09T04:32:52;7.32;;;2.72;;
49890;SDS011;35780;55.568;37.492;2022-09-09T04:35:18;7.07;;;3.20;;
49890;SDS011;35780;55.568;37.492;2022-09-09T04:37:45;10.00;;;3.15;;
49890;SDS011;35780;55.568;37.492;2022-09-09T04:40:11;6.97;;;2.72;;
49890;SDS011;35780;55.568;37.492;2022-09-09T04:42:37;6.68;;;2.53;;
49890;SDS011;35780;55.568;37.492;2022-09-09T04:45:03;9.90;;;3.30;;
49890;SDS011;35780;55.568;37.492;2022-09-09T04:47:29;8.75;;;3.42;;
49890;SDS011;35780;55.568;37.492;2022-09-09T04:49:54;7.50;;;3.00;;
49890;SDS011;35780;55.568;37.492;2022-09-09T04:52:20;7.88;;;3.35;;
49890;SDS011;35780;55.568;37.492;2022-09-09T04:54:46;8.00;;;2.58;;
49890;SDS011;35780;55.568;37.492;2022-09-09T04:57:11;4.88;;;2.83;;
49890;SDS011;35780;55.568;37.492;2022-09-09T04:59:37;7.10;;;3.05;;
49890;SDS011;35780;55.568;37.492;2022-09-09T05:02:04;6.50;;;2.90;;
49890;SDS011;35780;55.568;37.492;2022-09-09T05:04:30;9.50;;;3.05;;
49890;SDS011;35780;55.568;37.492;2022-09-09T05:06:55;11.43;;;3.42;;
49890;SDS011;35780;55.568;37.492;2022-09-09T05:09:21;6.97;;;3.00;;
49890;SDS011;35780;55.568;37.492;2022-09-09T05:11:46;9.45;;;3.13;;
49890;SDS011;35780;55.568;37.492;2022-09-09T05:14:12;4.60;;;2.83;;
49890;SDS011;35780;55.568;37.492;2022-09-09T05:16:38;7.82;;;2.33;;
49890;SDS011;35780;55.568;37.492;2022-09-09T05:19:03;10.32;;;2.78;;
49890;SDS011;35780;55.568;37.492;2022-09-09T05:21:29;6.78;;;2.80;;
49890;SDS011;35780;55.568;37.492;2022-09-09T05:23:56;8.32;;;2.13;;
49890;SDS011;35780;55.568;37.492;2022-09-09T05:26:22;7.45;;;2.63;;
49890;SDS011;35780;55.568;37.492;2022-09-09T05:28:49;10.90;;;3.00;;
49890;SDS011;35780;55.568;37.492;2022-09-09T05:31:15;5.93;;;2.45;;
49890;SDS011;35780;55.568;37.492;2022-09-09T05:33:42;5.68;;;2.78;;
49890;SDS011;35780;55.568;37.492;2022-09-09T05:36:09;6.97;;;2.13;;
49890;SDS011;35780;55.568;37.492;2022-09-09T05:38:38;4.75;;;2.20;;
49890;SDS011;35780;55.568;37.492;2022-09-09T05:41:04;5.53;;;2.00;;
49890;SDS011;35780;55.568;37.492;2022-09-09T05:43:30;6.38;;;2.28;;
49890;SDS011;35780;55.568;37.492;2022-09-09T05:46:02;6.35;;;2.83;;
49890;SDS011;35780;55.568;37.492;2022-09-09T05:48:33;7.47;;;2.20;;
49890;SDS011;35780;55.568;37.492;2022-09-09T05:51:10;4.70;;;2.40;;
49890;SDS011;35780;55.568;37.492;2022-09-09T05:53:37;6.75;;;2.10;;
49890;SDS011;35780;55.568;37.492;2022-09-09T05:56:04;4.43;;;1.92;;
49890;SDS011;35780;55.568;37.492;2022-09-09T05:58:31;6.43;;;1.88;;
49890;SDS011;35780;55.568;37.492;2022-09-09T06:01:08;4.45;;;2.00;;
49890;SDS011;35780;55.568;37.492;2022-09-09T06:03:38;2.95;;;1.80;;
49890;SDS011;35780;55.568;37.492;2022-09-09T06:06:06;5.80;;;1.58;;
49890;SDS011;35780;55.568;37.492;2022-09-09T06:08:33;2.92;;;1.55;;
49890;SDS011;35780;55.568;37.492;2022-09-09T06:11:05;4.50;;;1.83;;
49890;SDS011;35780;55.568;37.492;2022-09-09T06:13:42;2.97;;;1.70;;
49890;SDS011;35780;55.568;37.492;2022-09-09T06:16:12;5.43;;;1.73;;
49890;SDS011;35780;55.568;37.492;2022-09-09T06:18:40;4.75;;;1.70;;
49890;SDS011;35780;55.568;37.492;2022-09-09T06:21:07;2.45;;;1.27;;
49890;SDS011;35780;55.568;37.492;2022-09-09T06:23:53;3.80;;;1.30;;
49890;SDS011;35780;55.568;37.492;2022-09-09T06:26:25;3.22;;;1.60;;
49890;SDS011;35780;55.568;37.492;2022-09-09T06:28:53;6.15;;;1.70;;
49890;SDS011;35780;55.568;37.492;2022-09-09T06:31:20;12.10;;;2.53;;
49890;SDS011;35780;55.568;37.492;2022-09-09T06:33:47;3.22;;;1.60;;
49890;SDS011;35780;55.568;37.492;2022-09-09T06:36:15;4.35;;;2.20;;
49890;SDS011;35780;55.568;37.492;2022-09-09T06:38:43;8.70;;;2.22;;
49890;SDS011;35780;55.568;37.492;2022-09-09T06:41:09;5.72;;;2.20;;
49890;SDS011;35780;55.568;37.492;2022-09-09T06:43:35;4.97;;;2.35;;
49890;SDS011;35780;55.568;37.492;2022-09-09T06:46:02;4.43;;;1.80;;
49890;SDS011;35780;55.568;37.492;2022-09-09T06:48:29;5.55;;;2.00;;
49890;SDS011;35780;55.568;37.492;2022-09-09T06:53:27;5.60;;;1.58;;
49890;SDS011;35780;55.568;37.492;2022-09-09T06:55:53;4.30;;;1.50;;
49890;SDS011;35780;55.568;37.492;2022-09-09T06:58:20;4.32;;;1.15;;
49890;SDS011;35780;55.568;37.492;2022-09-09T07:00:47;4.57;;;1.40;;
49890;SDS011;35780;55.568;37.492;2022-09-09T07:03:13;4.20;;;1.50;;
49890;SDS011;35780;55.568;37.492;2022-09-09T07:05:38;5.43;;;1.58;;
49890;SDS011;35780;55.568;37.492;2022-09-09T07:08:04;6.10;;;1.70;;
49890;SDS011;35780;55.568;37.492;2022-09-09T07:10:31;7.72;;;1.25;;
49890;SDS011;35780;55.568;37.492;2022-09-09T07:12:56;8.05;;;1.83;;
49890;SDS011;35780;55.568;37.492;2022-09-09T07:15:22;3.33;;;1.42;;
49890;SDS011;35780;55.568;37.492;2022-09-09T07:17:48;3.10;;;1.67;;
49890;SDS011;35780;55.568;37.492;2022-09-09T07:20:14;5.32;;;0.85;;
49890;SDS011;35780;55.568;37.492;2022-09-09T07:22:40;4.40;;;1.10;;
49890;SDS011;35780;55.568;37.492;2022-09-09T07:25:06;2.65;;;1.50;;
49890;SDS011;35780;55.568;37.492;2022-09-09T07:27:32;2.83;;;1.23;;
49890;SDS011;35780;55.568;37.492;2022-09-09T07:29:57;2.42;;;1.20;;
49890;SDS011;35780;55.568;37.492;2022-09-09T07:32:23;5.72;;;1.30;;
49890;SDS011;35780;55.568;37.492;2022-09-09T07:34:50;2.25;;;1.30;;
49890;SDS011;35780;55.568;37.492;2022-09-09T07:37:16;2.22;;;1.35;;
49890;SDS011;35780;55.568;37.492;2022-09-09T07:39:42;3.40;;;1.30;;
49890;SDS011;35780;55.568;37.492;2022-09-09T07:42:09;5.50;;;1.20;;
49890;SDS011;35780;55.568;37.492;2022-09-09T07:44:36;6.60;;;1.40;;
49890;SDS011;35780;55.568;37.492;2022-09-09T07:47:02;3.95;;;1.30;;
49890;SDS011;35780;55.568;37.492;2022-09-09T07:49:28;3.33;;;1.20;;
49890;SDS011;35780;55.568;37.492;2022-09-09T07:51:56;6.35;;;1.80;;
49890;SDS011;35780;55.568;37.492;2022-09-09T07:54:22;6.20;;;1.42;;
49890;SDS011;35780;55.568;37.492;2022-09-09T07:56:49;2.35;;;1.15;;
49890;SDS011;35780;55.568;37.492;2022-09-09T07:59:15;3.60;;;1.25;;
49890;SDS011;35780;55.568;37.492;2022-09-09T08:01:42;5.93;;;1.60;;
49890;SDS011;35780;55.568;37.492;2022-09-09T08:04:11;13.98;;;1.58;;
49890;SDS011;35780;55.568;37.492;2022-09-09T08:06:41;5.40;;;1.60;;
49890;SDS011;35780;55.568;37.492;2022-09-09T08:09:08;6.38;;;1.63;;
49890;SDS011;35780;55.568;37.492;2022-09-09T08:11:34;4.72;;;1.63;;
49890;SDS011;35780;55.568;37.492;2022-09-09T08:14:01;5.30;;;1.40;;
49890;SDS011;35780;55.568;37.492;2022-09-09T08:16:31;3.75;;;1.70;;
49890;SDS011;35780;55.568;37.492;2022-09-09T08:18:58;9.50;;;1.55;;
49890;SDS011;35780;55.568;37.492;2022-09-09T08:21:24;6.85;;;1.67;;
49890;SDS011;35780;55.568;37.492;2022-09-09T08:23:54;5.60;;;1.52;;
49890;SDS011;35780;55.568;37.492;2022-09-09T08:26:21;7.20;;;1.40;;
49890;SDS011;35780;55.568;37.492;2022-09-09T08:28:52;5.15;;;1.20;;
49890;SDS011;35780;55.568;37.492;2022-09-09T08:31:20;2.50;;;1.30;;
49890;SDS011;35780;55.568;37.492;2022-09-09T08:33:47;3.55;;;1.50;;
49890;SDS011;35780;55.568;37.492;2022-09-09T08:36:14;3.40;;;1.42;;
49890;SDS011;35780;55.568;37.492;2022-09-09T08:38:42;3.58;;;1.40;;
49890;SDS011;35780;55.568;37.492;2022-09-09T08:41:18;3.60;;;1.70;;
49890;SDS011;35780;55.568;37.492;2022-09-09T08:44:07;3.58;;;1.85;;
49890;SDS011;35780;55.568;37.492;2022-09-09T08:46:48;5.32;;;1.63;;
49890;SDS011;35780;55.568;37.492;2022-09-09T08:52:55;3.50;;;1.52;;
49890;SDS011;35780;55.568;37.492;2022-09-09T08:55:48;4.00;;;1.63;;
49890;SDS011;35780;55.568;37.492;2022-09-09T08:58:20;6.75;;;1.83;;
49890;SDS011;35780;55.568;37.492;2022-09-09T09:03:43;3.42;;;1.55;;
49890;SDS011;35780;55.568;37.492;2022-09-09T09:06:24;2.85;;;1.40;;
49890;SDS011;35780;55.568;37.492;2022-09-09T09:09:24;2.30;;;1.35;;
49890;SDS011;35780;55.568;37.492;2022-09-09T09:11:59;5.90;;;2.28;;
49890;SDS011;35780;55.568;37.492;2022-09-09T09:14:31;3.03;;;1.42;;
49890;SDS011;35780;55.568;37.492;2022-09-09T09:17:00;3.50;;;1.52;;
49890;SDS011;35780;55.568;37.492;2022-09-09T09:19:34;4.25;;;1.42;;
49890;SDS011;35780;55.568;37.492;2022-09-09T09:24:55;8.07;;;1.50;;
49890;SDS011;35780;55.568;37.492;2022-09-09T09:28:02;5.32;;;2.03;;
49890;SDS011;35780;55.568;37.492;2022-09-09T09:30:34;4.10;;;1.95;;
49890;SDS011;35780;55.568;37.492;2022-09-09T09:35:31;3.78;;;1.63;;
49890;SDS011;35780;55.568;37.492;2022-09-09T09:37:56;3.65;;;1.20;;
49890;SDS011;35780;55.568;37.492;2022-09-09T09:40:22;4.05;;;1.42;;
49890;SDS011;35780;55.568;37.492;2022-09-09T09:42:56;3.58;;;1.13;;
49890;SDS011;35780;55.568;37.492;2022-09-09T09:45:34;4.35;;;1.30;;
49890;SDS011;35780;55.568;37.492;2022-09-09T09:48:09;8.45;;;1.70;;
49890;SDS011;35780;55.568;37.492;2022-09-09T09:50:39;4.60;;;1.10;;
49890;SDS011;35780;55.568;37.492;2022-09-09T09:53:24;6.75;;;1.60;;
49890;SDS011;35780;55.568;37.492;2022-09-09T09:58:20;6.13;;;1.40;;
49890;SDS011;35780;55.568;37.492;2022-09-09T10:00:50;6.15;;;1.65;;
49890;SDS011;35780;55.568;37.492;2022-09-09T10:03:34;3.67;;;1.50;;
49890;SDS011;35780;55.568;37.492;2022-09-09T10:06:05;11.00;;;2.60;;
49890;SDS011;35780;55.568;37.492;2022-09-09T10:08:33;2.78;;;1.38;;
49890;SDS011;35780;55.568;37.492;2022-09-09T10:29:53;3.10;;;1.15;;
49890;SDS011;35780;55.568;37.492;2022-09-09T10:32:32;3.22;;;1.48;;
49890;SDS011;35780;55.568;37.492;2022-09-09T10:37:53;2.95;;;1.33;;
49890;SDS011;35780;55.568;37.492;2022-09-09T10:49:16;4.25;;;2.08;;
49890;SDS011;35780;55.568;37.492;2022-09-09T10:54:56;4.40;;;1.38;;
49890;SDS011;35780;55.568;37.492;2022-09-09T11:00:22;3.58;;;1.70;;
49890;SDS011;35780;55.568;37.492;2022-09-09T11:02:51;2.60;;;1.13;;
49890;SDS011;35780;55.568;37.492;2022-09-09T11:05:35;2.53;;;1.45;;
49890;SDS011;35780;55.568;37.492;2022-09-09T11:08:10;2.80;;;1.27;;
49890;SDS011;35780;55.568;37.492;2022-09-09T11:13:09;1.95;;;1.30;;
49890;SDS011;35780;55.568;37.492;2022-09-09T11:18:20;5.28;;;1.50;;
49890;SDS011;35780;55.568;37.492;2022-09-09T11:20:48;3.13;;;1.20;;
49890;SDS011;35780;55.568;37.492;2022-09-09T11:23:27;2.30;;;1.27;;
49890;SDS011;35780;55.568;37.492;2022-09-09T11:26:03;3.72;;;1.30;;
49890;SDS011;35780;55.568;37.492;2022-09-09T11:28:43;3.22;;;1.50;;
49890;SDS011;35780;55.568;37.492;2022-09-09T11:31:37;7.05;;;0.95;;
49890;SDS011;35780;55.568;37.492;2022-09-09T11:34:14;4.70;;;1.58;;
49890;SDS011;35780;55.568;37.492;2022-09-09T11:44:39;5.13;;;1.20;;
49890;SDS011;35780;55.568;37.492;2022-09-09T11:47:19;3.97;;;1.33;;
49890;SDS011;35780;55.568;37.492;2022-09-09T11:52:40;3.97;;;1.33;;
49890;SDS011;35780;55.568;37.492;2022-09-09T11:55:29;3.67;;;1.42;;
49890;SDS011;35780;55.568;37.492;2022-09-09T11:57:57;9.43;;;1.30;;
49890;SDS011;35780;55.568;37.492;2022-09-09T12:00:37;2.97;;;1.48;;
49890;SDS011;35780;55.568;37.492;2022-09-09T12:06:08;4.80;;;1.20;;
49890;SDS011;35780;55.568;37.492;2022-09-09T12:08:39;3.25;;;1.00;;
49890;SDS011;35780;55.568;37.492;2022-09-09T12:11:07;2.65;;;1.20;;
49890;SDS011;35780;55.568;37.492;2022-09-09T12:13:32;3.15;;;1.20;;
49890;SDS011;35780;55.568;37.492;2022-09-09T12:15:59;1.83;;;1.00;;
49890;SDS011;35780;55.568;37.492;2022-09-09T12:18:37;3.22;;;1.25;;
49890;SDS011;35780;55.568;37.492;2022-09-09T12:23:55;2.28;;;1.50;;
49890;SDS011;35780;55.568;37.492;2022-09-09T12:26:32;5.68;;;1.83;;
49890;SDS011;35780;55.568;37.492;2022-09-09T12:37:15;6.80;;;1.55;;
49890;SDS011;35780;55.568;37.492;2022-09-09T12:40:01;1.88;;;1.20;;
49890;SDS011;35780;55.568;37.492;2022-09-09T12:42:32;4.38;;;1.20;;
49890;SDS011;35780;55.568;37.492;2022-09-09T12:45:01;3.13;;;1.55;;
49890;SDS011;35780;55.568;37.492;2022-09-09T12:47:49;3.13;;;1.50;;
49890;SDS011;35780;55.568;37.492;2022-09-09T12:50:27;4.55;;;2.05;;
49890;SDS011;35780;55.568;37.492;2022-09-09T12:53:41;3.63;;;1.15;;
49890;SDS011;35780;55.568;37.492;2022-09-09T12:55:50;4.75;;;1.40;;
49890;SDS011;35780;55.568;37.492;2022-09-09T12:58:27;9.10;;;1.65;;
49890;SDS011;35780;55.568;37.492;2022-09-09T13:00:58;4.95;;;2.03;;
49890;SDS011;35780;55.568;37.492;2022-09-09T13:03:25;7.72;;;2.10;;
49890;SDS011;35780;55.568;37.492;2022-09-09T13:05:51;23.10;;;11.02;;
49890;SDS011;35780;55.568;37.492;2022-09-09T13:08:18;7.10;;;2.65;;
49890;SDS011;35780;55.568;37.492;2022-09-09T13:13:23;3.65;;;1.15;;
49890;SDS011;35780;55.568;37.492;2022-09-09T13:15:52;2.83;;;1.63;;
49890;SDS011;35780;55.568;37.492;2022-09-09T13:18:21;4.35;;;1.42;;
49890;SDS011;35780;55.568;37.492;2022-09-09T13:20:48;4.13;;;1.60;;
49890;SDS011;35780;55.568;37.492;2022-09-09T13:23:14;5.35;;;2.35;;
49890;SDS011;35780;55.568;37.492;2022-09-09T13:25:40;3.45;;;1.48;;
49890;SDS011;35780;55.568;37.492;2022-09-09T13:28:18;2.63;;;1.35;;
49890;SDS011;35780;55.568;37.492;2022-09-09T13:30:54;2.95;;;1.42;;
49890;SDS011;35780;55.568;37.492;2022-09-09T13:33:28;1.88;;;1.08;;
49890;SDS011;35780;55.568;37.492;2022-09-09T13:38:22;2.38;;;1.23;;
49890;SDS011;35780;55.568;37.492;2022-09-09T13:41:08;3.47;;;2.03;;
49890;SDS011;35780;55.568;37.492;2022-09-09T13:43:36;5.65;;;1.50;;
49890;SDS011;35780;55.568;37.492;2022-09-09T13:46:04;3.22;;;1.38;;
49890;SDS011;35780;55.568;37.492;2022-09-09T13:48:31;1.92;;;1.10;;
49890;SDS011;35780;55.568;37.492;2022-09-09T13:50:58;2.90;;;1.13;;
49890;SDS011;35780;55.568;37.492;2022-09-09T13:53:25;1.88;;;1.23;;
49890;SDS011;35780;55.568;37.492;2022-09-09T13:55:50;6.22;;;1.48;;
49890;SDS011;35780;55.568;37.492;2022-09-09T13:58:17;5.30;;;1.40;;
49890;SDS011;35780;55.568;37.492;2022-09-09T14:00:44;5.90;;;1.25;;
49890;SDS011;35780;55.568;37.492;2022-09-09T14:03:10;5.85;;;2.20;;
49890;SDS011;35780;55.568;37.492;2022-09-09T14:05:36;4.47;;;2.45;;
49890;SDS011;35780;55.568;37.492;2022-09-09T14:08:03;4.32;;;2.05;;
49890;SDS011;35780;55.568;37.492;2022-09-09T14:10:29;7.55;;;3.03;;
49890;SDS011;35780;55.568;37.492;2022-09-09T14:12:55;6.75;;;3.22;;
49890;SDS011;35780;55.568;37.492;2022-09-09T14:15:21;4.93;;;2.70;;
49890;SDS011;35780;55.568;37.492;2022-09-09T14:17:47;4.07;;;1.90;;
49890;SDS011;35780;55.568;37.492;2022-09-09T14:20:13;5.13;;;1.98;;
49890;SDS011;35780;55.568;37.492;2022-09-09T14:22:40;3.03;;;1.25;;
49890;SDS011;35780;55.568;37.492;2022-09-09T14:25:07;4.38;;;1.30;;
49890;SDS011;35780;55.568;37.492;2022-09-09T14:27:33;7.95;;;1.40;;
49890;SDS011;35780;55.568;37.492;2022-09-09T14:29:59;6.43;;;1.70;;
49890;SDS011;35780;55.568;37.492;2022-09-09T14:32:25;6.10;;;2.03;;
49890;SDS011;35780;55.568;37.492;2022-09-09T14:34:51;9.13;;;2.25;;
49890;SDS011;35780;55.568;37.492;2022-09-09T14:37:17;4.38;;;1.27;;
49890;SDS011;35780;55.568;37.492;2022-09-09T14:39:43;2.30;;;1.20;;
49890;SDS011;35780;55.568;37.492;2022-09-09T14:42:10;2.10;;;1.02;;
49890;SDS011;35780;55.568;37.492;2022-09-09T14:44:36;7.70;;;2.85;;
49890;SDS011;35780;55.568;37.492;2022-09-09T14:47:04;4.47;;;2.28;;
49890;SDS011;35780;55.568;37.492;2022-09-09T14:49:30;6.88;;;1.80;;
49890;SDS011;35780;55.568;37.492;2022-09-09T14:51:56;5.55;;;2.03;;
49890;SDS011;35780;55.568;37.492;2022-09-09T14:54:21;7.90;;;2.42;;
49890;SDS011;35780;55.568;37.492;2022-09-09T14:56:48;12.38;;;2.50;;
49890;SDS011;35780;55.568;37.492;2022-09-09T14:59:14;3.95;;;2.33;;
49890;SDS011;35780;55.568;37.492;2022-09-09T15:01:39;6.00;;;2.20;;
49890;SDS011;35780;55.568;37.492;2022-09-09T15:04:05;4.25;;;1.90;;
49890;SDS011;35780;55.568;37.492;2022-09-09T15:06:31;6.03;;;2.05;;
49890;SDS011;35780;55.568;37.492;2022-09-09T15:08:59;5.93;;;2.47;;
49890;SDS011;35780;55.568;37.492;2022-09-09T15:11:29;8.27;;;2.03;;
49890;SDS011;35780;55.568;37.492;2022-09-09T15:13:57;13.15;;;3.13;;
49890;SDS011;35780;55.568;37.492;2022-09-09T15:16:24;5.88;;;2.85;;
49890;SDS011;35780;55.568;37.492;2022-09-09T15:18:52;8.63;;;2.30;;
49890;SDS011;35780;55.568;37.492;2022-09-09T15:21:20;11.15;;;3.20;;
49890;SDS011;35780;55.568;37.492;2022-09-09T15:23:47;10.23;;;3.30;;
49890;SDS011;35780;55.568;37.492;2022-09-09T15:26:13;12.60;;;3.22;;
49890;SDS011;35780;55.568;37.492;2022-09-09T15:28:40;10.10;;;5.53;;
49890;SDS011;35780;55.568;37.492;2022-09-09T15:31:07;8.57;;;5.28;;
49890;SDS011;35780;55.568;37.492;2022-09-09T15:33:36;14.32;;;4.47;;
49890;SDS011;35780;55.568;37.492;2022-09-09T15:36:12;7.35;;;4.25;;
49890;SDS011;35780;55.568;37.492;2022-09-09T15:38:41;12.02;;;3.83;;
49890;SDS011;35780;55.568;37.492;2022-09-09T15:41:07;8.73;;;3.78;;
49890;SDS011;35780;55.568;37.492;2022-09-09T15:43:32;9.52;;;3.55;;
49890;SDS011;35780;55.568;37.492;2022-09-09T15:45:59;6.88;;;2.95;;
49890;SDS011;35780;55.568;37.492;2022-09-09T15:48:34;7.22;;;3.03;;
49890;SDS011;35780;55.568;37.492;2022-09-09T15:51:03;10.07;;;3.25;;
49890;SDS011;35780;55.568;37.492;2022-09-09T15:53:29;8.60;;;2.83;;
49890;SDS011;35780;55.568;37.492;2022-09-09T15:55:57;7.65;;;2.65;;
49890;SDS011;35780;55.568;37.492;2022-09-09T15:58:24;12.10;;;3.28;;
49890;SDS011;35780;55.568;37.492;2022-09-09T16:00:49;15.90;;;3.42;;
49890;SDS011;35780;55.568;37.492;2022-09-09T16:03:15;20.73;;;4.50;;
49890;SDS011;35780;55.568;37.492;2022-09-09T16:05:41;16.63;;;5.20;;
49890;SDS011;35780;55.568;37.492;2022-09-09T16:08:06;8.45;;;4.80;;
49890;SDS011;35780;55.568;37.492;2022-09-09T16:10:32;15.27;;;5.18;;
49890;SDS011;35780;55.568;37.492;2022-09-09T16:12:57;12.52;;;4.35;;
49890;SDS011;35780;55.568;37.492;2022-09-09T16:15:24;15.93;;;4.65;;
49890;SDS011;35780;55.568;37.492;2022-09-09T16:17:52;17.33;;;4.28;;
49890;SDS011;35780;55.568;37.492;2022-09-09T16:20:18;14.55;;;3.70;;
49890;SDS011;35780;55.568;37.492;2022-09-09T16:22:44;11.98;;;3.58;;
49890;SDS011;35780;55.568;37.492;2022-09-09T16:25:09;12.88;;;3.42;;
49890;SDS011;35780;55.568;37.492;2022-09-09T16:27:35;9.70;;;3.63;;
49890;SDS011;35780;55.568;37.492;2022-09-09T16:30:01;14.32;;;3.10;;
49890;SDS011;35780;55.568;37.492;2022-09-09T16:32:28;16.23;;;3.70;;
49890;SDS011;35780;55.568;37.492;2022-09-09T16:34:54;9.98;;;3.45;;
49890;SDS011;35780;55.568;37.492;2022-09-09T16:37:20;11.43;;;3.65;;
49890;SDS011;35780;55.568;37.492;2022-09-09T16:39:45;19.27;;;4.97;;
49890;SDS011;35780;55.568;37.492;2022-09-09T16:42:11;12.60;;;4.70;;
49890;SDS011;35780;55.568;37.492;2022-09-09T16:44:37;22.20;;;5.63;;
49890;SDS011;35780;55.568;37.492;2022-09-09T16:47:02;17.02;;;6.65;;
49890;SDS011;35780;55.568;37.492;2022-09-09T16:49:28;15.70;;;5.32;;
49890;SDS011;35780;55.568;37.492;2022-09-09T16:51:53;20.60;;;4.72;;
49890;SDS011;35780;55.568;37.492;2022-09-09T16:54:22;15.40;;;4.15;;